Time;durP1;ratioP1;P1;durP2;ratioP2;P2;SDS_P1;SDS_P2;PMS_P1;PMS_P2;Temp;Humidity;BMP_temperature;BMP_pressure;BME280_temperature;BME280_humidity;BME280_pressure;Samples;Min_cycle;Max_cycle;Signal;HPM_P1;HPM_P2
2023/01/27 00:01:03;;;;;;;7.80;2.87;;;3.30;99.90;;;;;;5109705;28;20050;-58
2023/01/27 00:03:31;;;;;;;5.30;2.80;;;3.30;99.90;;;;;;5109401;28;20055;-59
2023/01/27 00:06:00;;;;;;;4.32;2.20;;;3.30;99.90;;;;;;5103088;28;20043;-62
2023/01/27 00:08:28;;;;;;;9.20;2.38;;;3.30;99.90;;;;;;5072915;28;20047;-59
2023/01/27 00:13:59;;;;;;;12.70;2.53;;;3.40;99.90;;;;;;5063198;27;20052;-60
2023/01/27 00:16:27;;;;;;;7.53;2.05;;;3.50;99.90;;;;;;5114492;28;20047;-57
2023/01/27 00:18:55;;;;;;;5.95;2.50;;;3.60;99.90;;;;;;5114273;28;20386;-58
2023/01/27 00:26:58;;;;;;;8.13;2.80;;;3.60;99.90;;;;;;5114090;28;20043;-59
2023/01/27 00:29:26;;;;;;;6.75;2.15;;;3.60;99.90;;;;;;5092339;28;20502;-63
2023/01/27 00:34:40;;;;;;;3.95;2.50;;;3.50;99.90;;;;;;5090201;28;20051;-64
2023/01/27 00:37:08;;;;;;;4.78;2.63;;;3.40;99.90;;;;;;5073277;28;20541;-64
2023/01/27 00:39:36;;;;;;;3.63;1.80;;;3.40;99.90;;;;;;5092977;28;20398;-63
2023/01/27 00:42:06;;;;;;;4.57;2.33;;;3.50;99.90;;;;;;5092206;28;20047;-63
2023/01/27 00:44:35;;;;;;;4.80;2.80;;;3.50;99.90;;;;;;5092071;28;20044;-63
2023/01/27 00:47:03;;;;;;;7.38;2.45;;;3.40;99.90;;;;;;5092197;28;20055;-63
2023/01/27 00:49:31;;;;;;;6.18;2.83;;;3.40;99.90;;;;;;5106974;28;20261;-64
2023/01/27 00:52:00;;;;;;;4.97;2.47;;;3.50;99.90;;;;;;5086494;28;20778;-64
2023/01/27 00:54:36;;;;;;;13.57;2.83;;;3.50;99.90;;;;;;5093317;28;20387;-63
2023/01/27 00:57:03;;;;;;;6.75;3.17;;;3.50;99.90;;;;;;5092582;28;20056;-64
2023/01/27 00:59:31;;;;;;;5.97;2.65;;;3.40;99.90;;;;;;5092771;28;20051;-63
2023/01/27 01:01:59;;;;;;;8.60;3.38;;;3.40;99.90;;;;;;5090190;28;20055;-64
2023/01/27 01:04:26;;;;;;;6.93;2.83;;;3.40;99.90;;;;;;5088766;28;20052;-63
2023/01/27 01:06:54;;;;;;;6.90;3.10;;;3.40;99.90;;;;;;5073261;28;20045;-64
2023/01/27 01:09:22;;;;;;;7.97;3.03;;;3.40;99.90;;;;;;5101227;28;20047;-62
2023/01/27 01:11:50;;;;;;;6.47;2.72;;;3.40;99.90;;;;;;5103532;28;20040;-64
2023/01/27 01:14:18;;;;;;;5.88;2.10;;;3.50;99.90;;;;;;5091568;28;20039;-62
2023/01/27 01:16:45;;;;;;;5.32;2.60;;;3.40;99.90;;;;;;5104095;28;20044;-61
2023/01/27 01:19:13;;;;;;;4.38;2.78;;;3.40;99.90;;;;;;5099311;28;20048;-62
2023/01/27 01:21:41;;;;;;;7.93;2.50;;;3.40;99.90;;;;;;5086592;28;20534;-64
2023/01/27 01:24:09;;;;;;;4.35;2.95;;;3.40;99.90;;;;;;5092335;28;20040;-61
2023/01/27 01:26:37;;;;;;;8.50;3.47;;;3.40;99.90;;;;;;5091396;28;20047;-58
2023/01/27 01:29:05;;;;;;;4.85;3.15;;;3.50;99.90;;;;;;5091676;28;20395;-64
2023/01/27 01:31:33;;;;;;;4.93;2.78;;;3.50;99.90;;;;;;5094825;28;20046;-63
2023/01/27 01:34:00;;;;;;;8.20;3.13;;;3.50;99.90;;;;;;5112885;28;20047;-60
2023/01/27 01:36:28;;;;;;;6.63;3.10;;;3.50;99.90;;;;;;5083688;28;20514;-58
2023/01/27 01:38:56;;;;;;;13.27;3.33;;;3.50;99.90;;;;;;5085719;28;20137;-63
2023/01/27 01:41:24;;;;;;;6.55;2.90;;;3.60;99.90;;;;;;5094512;28;20520;-62
2023/01/27 01:43:53;;;;;;;8.30;3.25;;;3.60;99.90;;;;;;5112166;28;20623;-63
2023/01/27 01:46:21;;;;;;;4.93;2.97;;;3.60;99.90;;;;;;5114904;27;20046;-62
2023/01/27 01:48:54;;;;;;;4.65;2.92;;;3.60;99.90;;;;;;5132796;27;20050;-64
2023/01/27 01:51:35;;;;;;;6.75;3.20;;;3.60;99.90;;;;;;5102232;28;20491;-63
2023/01/27 01:54:08;;;;;;;7.72;3.50;;;3.50;99.90;;;;;;5094291;28;20050;-63
2023/01/27 01:56:45;;;;;;;8.68;3.88;;;3.60;99.90;;;;;;5112801;28;20059;-61
2023/01/27 01:59:19;;;;;;;7.65;3.70;;;3.50;99.90;;;;;;5094167;28;20043;-57
2023/01/27 02:01:47;;;;;;;9.95;3.70;;;3.50;99.90;;;;;;5077200;28;20047;-58
2023/01/27 02:04:22;;;;;;;8.80;4.20;;;3.50;99.90;;;;;;5096118;28;20050;-64
2023/01/27 02:07:08;;;;;;;6.50;4.00;;;3.50;99.90;;;;;;5090945;28;20040;-64
2023/01/27 02:09:38;;;;;;;9.05;3.63;;;3.50;99.90;;;;;;5125422;27;20051;-60
2023/01/27 02:12:06;;;;;;;8.32;3.88;;;3.50;99.90;;;;;;5121745;27;20035;-59
2023/01/27 02:14:37;;;;;;;11.68;3.80;;;3.40;99.90;;;;;;5129337;27;20051;-58
2023/01/27 02:17:06;;;;;;;6.85;3.53;;;3.40;99.90;;;;;;5131115;27;20055;-60
2023/01/27 02:20:04;;;;;;;8.00;5.18;;;3.40;99.90;;;;;;5114301;27;20482;-58
2023/01/27 02:22:49;;;;;;;7.55;4.03;;;3.50;99.90;;;;;;5081188;28;20051;-58
2023/01/27 02:25:34;;;;;;;6.95;4.20;;;3.40;99.90;;;;;;5111736;28;20051;-58
2023/01/27 02:28:04;;;;;;;10.55;4.38;;;3.50;99.90;;;;;;5093575;28;20272;-59
2023/01/27 02:30:32;;;;;;;7.47;3.80;;;3.40;99.90;;;;;;5090251;28;20040;-63
2023/01/27 02:33:00;;;;;;;11.75;4.68;;;3.50;99.90;;;;;;5093728;28;20044;-63
2023/01/27 02:35:38;;;;;;;8.65;4.43;;;3.50;99.90;;;;;;5093858;28;20047;-63
2023/01/27 02:38:09;;;;;;;10.60;4.40;;;3.50;99.90;;;;;;5099135;27;20031;-58
2023/01/27 02:40:38;;;;;;;10.27;4.80;;;3.50;99.90;;;;;;5132707;27;20408;-58
2023/01/27 02:43:05;;;;;;;9.43;4.97;;;3.50;99.90;;;;;;5114418;27;20394;-59
2023/01/27 02:45:33;;;;;;;10.63;5.30;;;3.50;99.90;;;;;;5094822;27;20051;-58
2023/01/27 02:48:02;;;;;;;8.90;3.78;;;3.50;99.90;;;;;;5110524;27;20406;-57
2023/01/27 02:50:29;;;;;;;6.80;3.72;;;3.50;99.90;;;;;;5109212;28;20039;-57
2023/01/27 02:52:57;;;;;;;6.47;4.10;;;3.50;99.90;;;;;;5095116;28;20043;-58
2023/01/27 02:55:24;;;;;;;5.40;3.72;;;3.40;99.90;;;;;;5077573;28;20052;-59
2023/01/27 02:57:52;;;;;;;8.02;4.10;;;3.20;99.90;;;;;;5094572;28;20059;-63
2023/01/27 03:00:34;;;;;;;7.25;4.25;;;3.20;99.90;;;;;;5094487;28;20040;-61
2023/01/27 03:03:01;;;;;;;11.55;4.05;;;3.10;99.90;;;;;;5113002;28;20048;-63
2023/01/27 03:05:29;;;;;;;7.00;4.25;;;3.00;99.90;;;;;;5093597;28;20391;-64
2023/01/27 03:07:57;;;;;;;12.38;4.47;;;2.90;99.90;;;;;;5112879;28;20059;-64
2023/01/27 03:10:25;;;;;;;8.75;4.50;;;2.80;99.90;;;;;;5077890;28;20039;-63
2023/01/27 03:12:52;;;;;;;8.90;4.18;;;2.70;99.90;;;;;;5110752;28;20384;-63
2023/01/27 03:18:12;;;;;;;7.10;4.18;;;2.50;99.90;;;;;;5114781;27;20039;-65
2023/01/27 03:20:45;;;;;;;10.88;5.50;;;2.50;99.90;;;;;;5131932;27;20081;-63
2023/01/27 03:23:16;;;;;;;8.15;5.15;;;2.50;99.90;;;;;;5094861;28;20058;-63
2023/01/27 03:25:48;;;;;;;9.35;5.70;;;2.60;99.90;;;;;;5094103;28;20399;-64
2023/01/27 03:28:17;;;;;;;12.65;5.70;;;2.60;99.90;;;;;;5094476;28;20047;-63
2023/01/27 03:31:03;;;;;;;7.25;4.80;;;2.60;99.90;;;;;;5094024;28;20048;-63
2023/01/27 03:33:52;;;;;;;10.35;5.07;;;2.70;99.90;;;;;;5094152;28;20055;-63
2023/01/27 03:47:55;;;;;;;11.90;5.57;;;2.90;99.90;;;;;;5090898;28;20059;-64
2023/01/27 03:50:36;;;;;;;12.13;5.57;;;2.90;99.90;;;;;;5091619;28;20055;-60
2023/01/27 03:53:05;;;;;;;10.75;6.28;;;2.90;99.90;;;;;;5091706;28;20047;-65
2023/01/27 03:55:37;;;;;;;9.55;6.07;;;2.80;99.90;;;;;;5100192;28;20040;-63
2023/01/27 03:58:34;;;;;;;13.40;5.68;;;2.80;99.90;;;;;;5111883;28;20035;-63
2023/01/27 04:01:13;;;;;;;11.07;5.30;;;2.80;99.90;;;;;;5111869;28;20044;-58
2023/01/27 04:09:35;;;;;;;11.30;6.68;;;2.90;99.90;;;;;;5111291;28;20044;-64
2023/01/27 04:12:05;;;;;;;12.57;7.65;;;3.00;99.90;;;;;;5111662;28;20056;-64
2023/01/27 04:14:36;;;;;;;11.38;5.68;;;2.90;99.90;;;;;;5111907;28;20055;-62
2023/01/27 04:17:07;;;;;;;11.88;6.72;;;3.00;99.90;;;;;;5121034;28;20051;-63
2023/01/27 04:19:37;;;;;;;13.68;6.60;;;3.00;99.90;;;;;;5132652;28;20035;-63
2023/01/27 04:22:05;;;;;;;15.18;7.05;;;3.00;99.90;;;;;;5113776;28;20040;-64
2023/01/27 04:24:35;;;;;;;14.45;6.63;;;3.10;99.90;;;;;;5132410;28;20047;-61
2023/01/27 04:27:08;;;;;;;13.30;7.28;;;3.10;99.90;;;;;;5111686;28;20048;-61
2023/01/27 04:29:39;;;;;;;15.63;7.80;;;3.10;99.90;;;;;;5111514;28;20051;-61
2023/01/27 04:32:13;;;;;;;13.13;6.65;;;3.10;99.90;;;;;;5111725;28;20510;-62
2023/01/27 04:34:44;;;;;;;18.25;9.23;;;3.10;99.90;;;;;;5110824;28;20044;-58
2023/01/27 04:37:12;;;;;;;17.55;9.30;;;3.10;99.90;;;;;;5093051;28;20070;-59
2023/01/27 04:39:40;;;;;;;12.85;7.55;;;3.10;99.90;;;;;;5076573;28;20071;-62
2023/01/27 04:42:08;;;;;;;13.93;7.38;;;3.10;99.90;;;;;;5093543;28;20535;-62
2023/01/27 04:44:35;;;;;;;14.90;8.15;;;3.10;99.90;;;;;;5111600;28;20055;-64
2023/01/27 04:47:03;;;;;;;14.63;7.47;;;3.10;99.90;;;;;;5126304;28;20047;-64
2023/01/27 04:49:34;;;;;;;12.75;7.32;;;3.20;99.90;;;;;;5131747;28;20054;-63
2023/01/27 04:52:02;;;;;;;15.55;7.88;;;3.10;99.90;;;;;;5131981;28;20536;-57
2023/01/27 04:54:29;;;;;;;17.27;8.52;;;3.10;99.90;;;;;;5132059;28;20475;-64
2023/01/27 04:57:02;;;;;;;15.90;8.85;;;3.00;99.90;;;;;;5112768;28;20043;-61
2023/01/27 04:59:30;;;;;;;17.13;8.20;;;3.00;99.90;;;;;;5113006;28;20515;-64
2023/01/27 05:01:58;;;;;;;16.33;8.77;;;2.90;99.90;;;;;;5115268;28;20055;-64
2023/01/27 05:04:26;;;;;;;14.55;9.07;;;2.90;99.90;;;;;;5115002;28;20058;-63
2023/01/27 05:06:54;;;;;;;17.60;9.48;;;2.90;99.90;;;;;;5115076;28;20055;-65
2023/01/27 05:09:21;;;;;;;16.15;8.65;;;2.90;99.90;;;;;;5115132;28;20048;-64
2023/01/27 05:11:49;;;;;;;16.80;8.45;;;2.90;99.90;;;;;;5096887;28;20055;-65
2023/01/27 05:14:22;;;;;;;17.98;8.25;;;2.90;99.90;;;;;;5114857;28;20051;-64
2023/01/27 05:16:50;;;;;;;17.05;9.20;;;2.80;99.90;;;;;;5127723;27;20051;-64
2023/01/27 05:19:18;;;;;;;17.65;9.35;;;2.90;99.90;;;;;;5135526;27;20043;-61
2023/01/27 05:21:45;;;;;;;15.77;9.27;;;2.90;99.90;;;;;;5135386;27;20047;-60
2023/01/27 05:24:13;;;;;;;19.75;9.98;;;2.90;99.90;;;;;;5133267;27;20062;-65
2023/01/27 05:26:41;;;;;;;19.60;9.95;;;2.90;99.90;;;;;;5118886;27;20623;-63
2023/01/27 05:29:08;;;;;;;18.92;9.25;;;2.80;99.90;;;;;;5114521;28;20051;-62
2023/01/27 05:31:36;;;;;;;19.40;9.18;;;2.60;99.90;;;;;;5113907;28;20051;-61
2023/01/27 05:34:08;;;;;;;17.00;8.40;;;2.60;99.90;;;;;;5114594;28;20411;-63
2023/01/27 05:36:36;;;;;;;19.25;8.73;;;2.50;99.90;;;;;;5114497;28;20540;-64
2023/01/27 05:39:04;;;;;;;18.25;8.40;;;2.40;99.90;;;;;;5113470;28;20055;-61
2023/01/27 05:41:34;;;;;;;21.20;9.57;;;2.40;99.90;;;;;;5114667;28;20047;-61
2023/01/27 05:44:10;;;;;;;22.20;9.30;;;2.30;99.90;;;;;;5114459;28;20054;-64
2023/01/27 05:46:39;;;;;;;26.30;10.63;;;2.20;99.90;;;;;;5125545;27;20053;-64
2023/01/27 05:49:08;;;;;;;23.23;10.93;;;2.20;99.90;;;;;;5094820;27;20047;-63
2023/01/27 05:51:40;;;;;;;24.17;10.65;;;2.10;99.90;;;;;;5090761;28;20120;-63
2023/01/27 05:54:09;;;;;;;28.33;11.35;;;2.10;99.90;;;;;;5090197;28;20051;-63
2023/01/27 05:56:38;;;;;;;20.70;9.95;;;2.00;99.90;;;;;;5101680;28;20039;-64
2023/01/27 05:59:10;;;;;;;21.27;11.40;;;2.00;99.90;;;;;;5110468;28;20062;-58
2023/01/27 06:01:43;;;;;;;27.33;11.27;;;2.00;99.90;;;;;;5078442;28;20040;-62
2023/01/27 06:04:12;;;;;;;23.40;10.75;;;1.90;99.90;;;;;;5070938;28;20044;-58
2023/01/27 06:06:41;;;;;;;26.90;12.40;;;2.00;99.90;;;;;;5086477;28;20056;-63
2023/01/27 06:09:09;;;;;;;24.23;10.48;;;1.90;99.90;;;;;;5108883;28;20391;-63
2023/01/27 06:11:41;;;;;;;21.00;10.80;;;1.90;99.90;;;;;;5109764;28;20044;-60
2023/01/27 06:14:11;;;;;;;22.67;9.82;;;1.80;99.90;;;;;;5108474;28;20061;-59
2023/01/27 06:16:39;;;;;;;23.40;10.73;;;1.80;99.90;;;;;;5119997;27;20042;-57
2023/01/27 06:19:07;;;;;;;27.17;12.32;;;1.80;99.90;;;;;;5110986;27;20065;-58
2023/01/27 06:21:40;;;;;;;23.65;11.50;;;1.70;99.90;;;;;;5091053;28;20055;-58
2023/01/27 06:24:11;;;;;;;23.52;11.57;;;1.70;99.90;;;;;;5089493;28;20043;-59
2023/01/27 06:26:40;;;;;;;26.65;13.32;;;1.70;99.90;;;;;;5108343;28;20044;-63
2023/01/27 06:29:08;;;;;;;29.02;12.55;;;1.80;99.90;;;;;;5111406;28;20047;-57
2023/01/27 06:31:35;;;;;;;32.00;11.50;;;1.80;99.90;;;;;;5110070;28;20050;-61
2023/01/27 06:34:03;;;;;;;29.30;11.88;;;1.80;99.90;;;;;;5108355;28;20796;-61
2023/01/27 06:36:31;;;;;;;27.20;9.55;;;1.90;99.90;;;;;;5108378;28;20044;-57
2023/01/27 06:38:58;;;;;;;30.75;12.18;;;1.90;99.90;;;;;;5091346;28;20059;-59
2023/01/27 06:41:29;;;;;;;38.97;11.75;;;1.90;99.90;;;;;;5095192;28;20043;-58
2023/01/27 06:43:57;;;;;;;38.90;11.38;;;1.90;99.90;;;;;;5122673;27;20051;-58
2023/01/27 06:46:24;;;;;;;31.73;10.65;;;2.00;99.90;;;;;;5131135;27;20055;-58
2023/01/27 06:48:52;;;;;;;32.13;12.40;;;2.10;99.90;;;;;;5114266;27;20039;-58
2023/01/27 06:51:20;;;;;;;39.20;11.77;;;2.10;99.90;;;;;;5092317;28;20047;-58
2023/01/27 06:53:48;;;;;;;34.95;12.02;;;2.20;99.90;;;;;;5113129;27;20043;-57
2023/01/27 06:56:15;;;;;;;33.88;12.55;;;2.20;99.90;;;;;;5128903;27;20050;-61
2023/01/27 06:58:44;;;;;;;36.20;11.63;;;2.30;99.90;;;;;;5116712;27;20052;-62
2023/01/27 07:01:12;;;;;;;43.17;12.95;;;2.20;99.90;;;;;;5109724;28;20051;-61
2023/01/27 07:03:42;;;;;;;44.33;13.85;;;2.30;99.90;;;;;;5081646;27;20501;-63
2023/01/27 07:06:13;;;;;;;38.42;14.20;;;2.30;99.90;;;;;;5129179;27;20508;-62
2023/01/27 07:08:44;;;;;;;43.10;14.18;;;2.40;99.90;;;;;;5095048;28;20411;-62
2023/01/27 07:11:13;;;;;;;36.25;12.77;;;2.40;99.90;;;;;;5106538;27;20414;-58
2023/01/27 07:13:40;;;;;;;41.33;13.15;;;2.40;99.90;;;;;;5119524;27;20058;-58
2023/01/27 07:16:08;;;;;;;30.75;12.45;;;2.40;99.90;;;;;;5131666;27;20546;-58
2023/01/27 07:18:35;;;;;;;37.10;12.68;;;2.50;99.90;;;;;;5099589;28;20055;-57
2023/01/27 07:21:04;;;;;;;36.17;12.45;;;2.50;99.90;;;;;;5110709;28;20048;-60
2023/01/27 07:23:32;;;;;;;37.55;13.18;;;2.50;99.90;;;;;;5115538;27;20043;-61
2023/01/27 07:26:03;;;;;;;36.97;12.68;;;2.50;99.90;;;;;;5131163;27;20069;-64
2023/01/27 07:28:42;;;;;;;34.35;13.93;;;2.50;99.90;;;;;;5116342;27;20047;-64
2023/01/27 07:31:09;;;;;;;38.50;12.55;;;2.50;99.90;;;;;;5105816;28;20050;-63
2023/01/27 07:33:37;;;;;;;39.15;14.57;;;2.50;99.90;;;;;;5103837;28;20032;-61
2023/01/27 07:36:05;;;;;;;37.67;14.02;;;2.60;99.90;;;;;;5108022;28;20039;-62
2023/01/27 07:38:33;;;;;;;30.70;12.05;;;2.60;99.90;;;;;;5097959;28;20437;-63
2023/01/27 07:41:06;;;;;;;37.72;12.85;;;2.60;99.90;;;;;;5089981;28;20051;-59
2023/01/27 07:43:34;;;;;;;29.30;11.70;;;2.60;99.90;;;;;;5117567;27;20047;-62
2023/01/27 07:46:07;;;;;;;37.58;13.13;;;2.70;99.90;;;;;;5078843;28;20051;-64
2023/01/27 07:48:38;;;;;;;36.05;13.55;;;2.60;99.90;;;;;;5105921;27;20044;-62
2023/01/27 07:51:05;;;;;;;28.95;12.30;;;2.80;99.90;;;;;;5090919;27;20028;-62
2023/01/27 07:53:41;;;;;;;39.13;12.75;;;2.80;99.90;;;;;;5094977;27;20047;-62
2023/01/27 07:56:11;;;;;;;39.38;13.73;;;2.70;99.90;;;;;;5089931;28;20050;-59
2023/01/27 07:58:40;;;;;;;37.42;13.85;;;2.80;99.90;;;;;;5103250;28;20043;-62
2023/01/27 08:01:10;;;;;;;43.22;14.77;;;2.80;99.90;;;;;;5091265;28;20039;-58
2023/01/27 08:03:38;;;;;;;34.80;13.68;;;2.80;99.90;;;;;;5114294;27;20043;-61
2023/01/27 08:06:07;;;;;;;31.77;12.95;;;2.70;99.90;;;;;;5125981;27;20482;-58
2023/01/27 08:08:38;;;;;;;32.22;13.27;;;2.80;99.90;;;;;;5107290;28;20050;-60
2023/01/27 08:11:07;;;;;;;35.42;13.63;;;2.80;99.90;;;;;;5109497;28;20153;-59
2023/01/27 08:13:35;;;;;;;33.83;11.90;;;2.80;99.90;;;;;;5097073;28;20049;-60
2023/01/27 08:16:05;;;;;;;23.75;10.10;;;2.90;99.90;;;;;;5096781;28;20513;-63
2023/01/27 08:18:34;;;;;;;25.40;10.57;;;2.90;99.90;;;;;;5082655;28;20040;-62
2023/01/27 08:21:07;;;;;;;23.95;9.38;;;2.90;99.90;;;;;;5090316;28;20044;-58
2023/01/27 08:23:35;;;;;;;26.55;9.18;;;3.00;99.90;;;;;;5106352;28;20054;-62
2023/01/27 08:26:04;;;;;;;24.40;7.70;;;3.00;99.90;;;;;;5110677;28;20039;-61
2023/01/27 08:28:33;;;;;;;;;;;3.10;99.90;;;;;;5087665;28;20047;-61
2023/01/27 08:31:18;;;;;;;21.27;7.85;;;3.10;99.90;;;;;;5089203;28;19927;-60
2023/01/27 08:33:51;;;;;;;23.75;8.80;;;3.10;99.90;;;;;;5118015;27;20043;-61
2023/01/27 08:36:20;;;;;;;21.05;8.18;;;3.20;99.90;;;;;;5111734;27;20577;-60
2023/01/27 08:38:48;;;;;;;20.70;8.68;;;3.30;99.90;;;;;;5094378;28;20055;-63
2023/01/27 08:41:22;;;;;;;24.73;8.48;;;3.30;99.90;;;;;;5077347;28;20048;-63
2023/01/27 08:43:50;;;;;;;21.08;8.75;;;3.40;99.90;;;;;;5104357;27;20043;-64
2023/01/27 08:46:17;;;;;;;17.55;7.55;;;3.30;99.90;;;;;;5104030;28;20051;-57
2023/01/27 08:48:45;;;;;;;18.83;7.63;;;3.40;99.90;;;;;;5107342;28;20058;-59
2023/01/27 08:51:14;;;;;;;18.40;7.43;;;3.40;99.90;;;;;;5109354;28;20047;-58
2023/01/27 08:53:41;;;;;;;17.23;6.15;;;3.50;99.90;;;;;;5120362;27;20047;-58
2023/01/27 08:56:14;;;;;;;22.88;7.15;;;3.50;99.90;;;;;;5101172;28;20079;-58
2023/01/27 08:58:41;;;;;;;20.95;7.88;;;3.60;99.90;;;;;;5095470;28;20040;-57
2023/01/27 09:01:09;;;;;;;24.50;9.32;;;3.60;99.90;;;;;;5102335;28;20043;-56
2023/01/27 09:03:37;;;;;;;32.13;10.27;;;3.60;99.90;;;;;;5108657;27;20043;-57
2023/01/27 09:06:09;;;;;;;32.65;11.00;;;3.60;99.90;;;;;;5074886;28;20047;-57
2023/01/27 09:08:37;;;;;;;25.25;9.82;;;3.60;99.90;;;;;;5106196;28;20221;-59
2023/01/27 09:11:14;;;;;;;26.38;9.38;;;3.70;99.90;;;;;;5098914;28;20134;-56
2023/01/27 09:13:42;;;;;;;25.30;9.85;;;3.70;99.90;;;;;;5101375;28;20039;-58
2023/01/27 09:16:09;;;;;;;26.75;10.70;;;3.70;99.90;;;;;;5087248;28;20040;-56
2023/01/27 09:18:37;;;;;;;24.35;10.45;;;3.70;99.90;;;;;;5106021;28;20044;-59
2023/01/27 09:21:05;;;;;;;28.08;9.93;;;3.70;99.90;;;;;;5113089;28;20039;-58
2023/01/27 09:23:33;;;;;;;30.63;11.75;;;3.80;99.90;;;;;;5108605;28;20055;-57
2023/01/27 09:26:01;;;;;;;27.15;11.30;;;3.80;99.90;;;;;;5112568;28;20039;-57
2023/01/27 09:28:28;;;;;;;33.58;11.93;;;3.80;99.90;;;;;;5107113;28;20088;-58
2023/01/27 09:30:57;;;;;;;31.23;12.20;;;3.80;99.90;;;;;;5111505;28;20051;-58
2023/01/27 09:33:26;;;;;;;26.45;11.52;;;3.80;99.90;;;;;;5111496;28;20039;-58
2023/01/27 09:36:05;;;;;;;28.38;11.73;;;3.80;99.90;;;;;;5098012;28;20056;-56
2023/01/27 09:38:42;;;;;;;34.53;13.30;;;3.90;99.90;;;;;;5105006;28;20054;-58
2023/01/27 09:41:48;;;;;;;28.95;11.68;;;3.90;99.90;;;;;;5102522;27;20051;-59
2023/01/27 09:44:21;;;;;;;39.22;13.88;;;4.10;99.90;;;;;;5103857;28;20386;-58
2023/01/27 09:47:04;;;;;;;30.42;10.88;;;4.10;99.90;;;;;;5111202;28;20051;-58
2023/01/27 09:50:11;;;;;;;28.83;12.23;;;4.20;99.90;;;;;;5095459;27;20048;-58
2023/01/27 09:52:57;;;;;;;29.10;11.82;;;4.30;99.90;;;;;;5111623;28;20051;-58
2023/01/27 09:56:00;;;;;;;29.48;11.45;;;4.30;99.90;;;;;;5085092;28;20039;-59
2023/01/27 09:58:52;;;;;;;31.75;11.65;;;4.40;99.90;;;;;;5105857;28;20054;-64
2023/01/27 10:01:22;;;;;;;24.90;10.25;;;4.40;99.90;;;;;;5111877;28;20043;-63
2023/01/27 10:04:07;;;;;;;28.35;11.07;;;4.50;99.90;;;;;;5105278;27;20059;-61
2023/01/27 10:06:44;;;;;;;23.30;10.63;;;4.70;99.90;;;;;;5094015;28;20650;-58
2023/01/27 10:09:23;;;;;;;24.92;9.93;;;4.70;99.90;;;;;;5103225;28;20051;-58
2023/01/27 10:12:04;;;;;;;20.48;8.82;;;4.80;99.90;;;;;;5102916;28;20035;-59
2023/01/27 10:14:53;;;;;;;22.40;10.45;;;4.90;99.90;;;;;;5126734;27;20462;-58
2023/01/27 10:17:39;;;;;;;20.03;8.40;;;5.00;99.90;;;;;;5106131;27;20055;-59
2023/01/27 10:20:19;;;;;;;20.05;8.52;;;5.10;99.90;;;;;;5104386;28;20040;-64
2023/01/27 10:23:11;;;;;;;15.80;8.48;;;5.10;99.90;;;;;;5112070;28;20048;-59
2023/01/27 10:26:20;;;;;;;16.48;7.57;;;5.20;99.90;;;;;;5109086;28;20040;-64
2023/01/27 10:28:53;;;;;;;19.52;7.85;;;5.20;99.90;;;;;;5126394;27;20509;-57
2023/01/27 10:31:28;;;;;;;17.67;7.70;;;5.20;99.90;;;;;;5115237;27;20048;-61
2023/01/27 10:34:00;;;;;;;16.65;7.28;;;5.20;99.90;;;;;;5107923;27;20051;-57
2023/01/27 10:36:37;;;;;;;15.38;6.40;;;5.20;99.90;;;;;;5111747;28;20063;-63
2023/01/27 10:39:25;;;;;;;16.25;6.40;;;5.10;99.90;;;;;;5109864;28;20487;-63
2023/01/27 10:42:11;;;;;;;16.00;6.30;;;5.10;99.90;;;;;;5111512;28;20486;-62
2023/01/27 10:45:09;;;;;;;18.58;6.47;;;5.20;99.90;;;;;;5110315;28;20047;-62
2023/01/27 10:48:11;;;;;;;14.30;5.82;;;5.20;99.90;;;;;;5105762;27;20043;-64
2023/01/27 10:51:10;;;;;;;12.60;5.78;;;5.20;99.90;;;;;;5083694;27;20059;-58
2023/01/27 10:54:01;;;;;;;13.02;6.18;;;5.20;99.90;;;;;;5069060;28;20055;-60
2023/01/27 10:56:39;;;;;;;13.18;6.50;;;5.30;99.90;;;;;;5098385;28;20039;-63
2023/01/27 10:59:50;;;;;;;15.02;6.30;;;5.30;99.90;;;;;;5108358;28;20412;-63
2023/01/27 11:02:55;;;;;;;14.73;7.22;;;5.30;99.90;;;;;;5086701;27;20083;-63
2023/01/27 11:05:32;;;;;;;15.95;6.22;;;5.30;99.90;;;;;;5096381;28;20236;-57
2023/01/27 11:08:07;;;;;;;15.40;7.00;;;5.30;99.90;;;;;;5110135;28;20047;-58
2023/01/27 11:13:35;;;;;;;20.48;7.63;;;5.40;99.90;;;;;;5090869;27;20040;-62
2023/01/27 11:16:04;;;;;;;15.75;6.40;;;5.40;99.90;;;;;;5091800;28;20044;-59
2023/01/27 11:18:36;;;;;;;15.65;6.22;;;5.50;99.90;;;;;;5109764;28;20048;-60
2023/01/27 11:21:08;;;;;;;16.92;6.65;;;5.50;99.90;;;;;;5111087;28;20039;-64
2023/01/27 11:23:44;;;;;;;13.50;6.28;;;5.50;99.90;;;;;;5098333;27;20036;-63
2023/01/27 11:26:12;;;;;;;12.88;6.80;;;5.50;99.90;;;;;;5090206;28;20048;-63
2023/01/27 11:28:50;;;;;;;15.27;7.72;;;5.50;99.90;;;;;;5109649;28;20040;-63
2023/01/27 11:31:42;;;;;;;15.90;7.00;;;5.60;99.90;;;;;;5109040;28;20039;-62
2023/01/27 11:34:20;;;;;;;14.48;7.18;;;5.60;99.90;;;;;;5113936;27;20043;-64
2023/01/27 11:36:49;;;;;;;17.17;7.73;;;5.60;99.90;;;;;;5130998;27;20050;-62
2023/01/27 11:39:18;;;;;;;18.65;7.85;;;5.60;99.90;;;;;;5080323;28;20297;-62
2023/01/27 11:41:50;;;;;;;17.20;8.55;;;5.60;99.90;;;;;;5104589;28;20040;-58
2023/01/27 11:44:22;;;;;;;12.20;7.00;;;5.60;99.90;;;;;;5112780;27;20054;-58
2023/01/27 11:46:52;;;;;;;16.58;7.43;;;5.60;99.90;;;;;;5090701;27;20047;-61
2023/01/27 11:49:25;;;;;;;;;;;5.60;99.90;;;;;;5097933;27;20040;-62
2023/01/27 11:52:08;;;;;;;12.57;6.07;;;5.60;99.90;;;;;;5093063;28;19924;-62
2023/01/27 11:54:41;;;;;;;10.20;5.97;;;5.70;99.90;;;;;;5101729;27;20046;-63
2023/01/27 11:57:28;;;;;;;18.50;7.18;;;5.70;99.90;;;;;;5097117;28;20498;-57
2023/01/27 12:00:04;;;;;;;11.85;6.45;;;5.70;99.90;;;;;;5094604;28;20556;-58
2023/01/27 12:02:35;;;;;;;18.30;6.75;;;5.70;99.90;;;;;;5101378;27;20043;-58
2023/01/27 12:05:15;;;;;;;16.15;6.82;;;5.80;99.90;;;;;;5108940;28;20055;-58
2023/01/27 12:07:50;;;;;;;11.70;6.80;;;5.80;99.90;;;;;;5099848;28;20066;-58
2023/01/27 12:10:28;;;;;;;15.75;7.35;;;5.80;99.90;;;;;;5097614;28;20048;-57
2023/01/27 12:12:59;;;;;;;14.65;7.25;;;5.90;99.90;;;;;;5095369;28;20413;-58
2023/01/27 12:15:29;;;;;;;21.98;8.38;;;6.00;99.90;;;;;;5107923;28;20047;-59
2023/01/27 12:18:12;;;;;;;20.63;8.98;;;6.00;99.90;;;;;;5096146;28;20050;-59
2023/01/27 12:21:05;;;;;;;18.02;8.07;;;6.10;99.90;;;;;;5085346;28;20055;-57
2023/01/27 12:23:45;;;;;;;18.02;9.38;;;6.10;99.90;;;;;;5100082;28;20043;-61
2023/01/27 12:26:13;;;;;;;13.07;7.03;;;6.10;99.90;;;;;;5105547;28;20059;-58
2023/01/27 12:28:49;;;;;;;14.38;6.93;;;6.10;99.90;;;;;;5112848;28;20035;-58
2023/01/27 12:31:28;;;;;;;13.95;6.43;;;6.10;99.90;;;;;;5089491;28;20052;-58
2023/01/27 12:34:12;;;;;;;11.57;6.28;;;6.10;99.90;;;;;;5098026;28;20051;-64
2023/01/27 12:36:42;;;;;;;13.55;6.25;;;6.00;99.90;;;;;;5086898;28;20035;-63
2023/01/27 12:39:27;;;;;;;12.35;5.97;;;6.00;99.90;;;;;;5101877;28;20059;-62
2023/01/27 12:41:54;;;;;;;12.73;6.60;;;6.00;99.90;;;;;;5089477;28;20044;-64
2023/01/27 12:44:22;;;;;;;15.93;6.55;;;6.00;99.90;;;;;;5097907;28;20044;-62
2023/01/27 12:47:18;;;;;;;9.30;5.07;;;6.00;99.90;;;;;;5089634;28;20040;-61
2023/01/27 12:49:47;;;;;;;9.63;5.45;;;5.90;99.90;;;;;;5102308;28;20052;-61
2023/01/27 12:52:20;;;;;;;12.55;5.80;;;5.90;99.90;;;;;;5089360;28;20048;-63
2023/01/27 12:54:50;;;;;;;11.27;4.93;;;5.90;99.90;;;;;;5101162;28;20509;-57
2023/01/27 12:57:20;;;;;;;13.98;6.30;;;5.90;99.90;;;;;;5100751;28;20048;-60
2023/01/27 12:59:51;;;;;;;10.60;5.60;;;5.90;99.90;;;;;;5090991;28;20051;-57
2023/01/27 13:02:25;;;;;;;9.85;4.55;;;5.90;99.90;;;;;;5099017;28;20059;-59
2023/01/27 13:05:07;;;;;;;9.63;5.25;;;5.90;99.90;;;;;;5111949;28;20058;-61
2023/01/27 13:07:44;;;;;;;11.45;5.03;;;6.00;99.90;;;;;;5108291;28;20044;-62
2023/01/27 13:10:23;;;;;;;6.70;4.13;;;6.00;99.90;;;;;;5108351;28;20047;-64
2023/01/27 13:12:58;;;;;;;5.97;4.17;;;6.00;99.90;;;;;;5108331;28;20541;-63
2023/01/27 13:15:29;;;;;;;9.02;4.85;;;6.00;99.90;;;;;;5088814;28;20052;-63
2023/01/27 13:17:58;;;;;;;9.18;4.75;;;6.00;99.90;;;;;;5096595;28;20047;-63
2023/01/27 13:20:35;;;;;;;10.43;4.90;;;6.00;99.90;;;;;;5103528;28;20040;-62
2023/01/27 13:23:28;;;;;;;10.85;6.18;;;6.10;99.90;;;;;;5108811;27;20066;-62
2023/01/27 13:26:07;;;;;;;12.45;5.75;;;6.10;99.90;;;;;;5090721;27;20074;-61
2023/01/27 13:29:08;;;;;;;9.80;4.50;;;6.20;99.90;;;;;;5105005;28;20422;-64
2023/01/27 13:32:04;;;;;;;6.97;4.28;;;6.20;99.90;;;;;;5112033;28;20498;-61
2023/01/27 13:34:53;;;;;;;8.48;4.70;;;6.20;99.90;;;;;;5118320;27;20043;-63
2023/01/27 13:38:05;;;;;;;6.87;3.60;;;6.20;99.90;;;;;;5105773;27;20048;-58
2023/01/27 13:40:53;;;;;;;8.70;4.20;;;6.20;99.90;;;;;;5091687;28;20050;-57
2023/01/27 13:43:40;;;;;;;8.75;4.32;;;6.20;99.90;;;;;;5092778;27;20035;-57
2023/01/27 13:46:23;;;;;;;7.88;3.83;;;6.30;99.90;;;;;;5092718;28;20051;-58
2023/01/27 13:48:57;;;;;;;14.55;4.03;;;6.30;99.90;;;;;;5099607;28;20126;-57
2023/01/27 13:51:28;;;;;;;10.02;4.18;;;6.30;99.90;;;;;;5094134;27;20399;-58
2023/01/27 13:53:59;;;;;;;6.57;2.92;;;6.30;99.90;;;;;;5111894;27;20398;-58